sensor_id;sensor_type;location;lat;lon;timestamp;P1;durP1;ratioP1;P2;durP2;ratioP2
62863;SDS011;48954;59.950;11.014;2024-01-06T00:01:54;11.10;;;6.30;;
62863;SDS011;48954;59.950;11.014;2024-01-06T00:04:21;6.90;;;4.00;;
62863;SDS011;48954;59.950;11.014;2024-01-06T00:06:48;10.50;;;7.40;;
62863;SDS011;48954;59.950;11.014;2024-01-06T00:09:13;12.00;;;6.60;;
62863;SDS011;48954;59.950;11.014;2024-01-06T00:11:39;15.50;;;6.90;;
62863;SDS011;48954;59.950;11.014;2024-01-06T00:14:06;2.90;;;1.70;;
62863;SDS011;48954;59.950;11.014;2024-01-06T00:16:31;12.00;;;7.80;;
62863;SDS011;48954;59.950;11.014;2024-01-06T00:18:57;9.80;;;4.00;;
62863;SDS011;48954;59.950;11.014;2024-01-06T00:21:23;8.90;;;3.90;;
62863;SDS011;48954;59.950;11.014;2024-01-06T00:23:49;11.80;;;7.10;;
62863;SDS011;48954;59.950;11.014;2024-01-06T00:26:15;6.90;;;4.00;;
62863;SDS011;48954;59.950;11.014;2024-01-06T00:28:41;12.00;;;3.10;;
62863;SDS011;48954;59.950;11.014;2024-01-06T00:31:07;3.00;;;2.30;;
62863;SDS011;48954;59.950;11.014;2024-01-06T00:33:34;17.00;;;7.70;;
62863;SDS011;48954;59.950;11.014;2024-01-06T00:36:00;23.10;;;7.10;;
62863;SDS011;48954;59.950;11.014;2024-01-06T00:38:28;20.30;;;8.90;;
62863;SDS011;48954;59.950;11.014;2024-01-06T00:40:54;10.00;;;5.70;;
62863;SDS011;48954;59.950;11.014;2024-01-06T00:43:22;9.10;;;4.20;;
62863;SDS011;48954;59.950;11.014;2024-01-06T00:45:49;15.30;;;6.40;;
62863;SDS011;48954;59.950;11.014;2024-01-06T00:48:16;21.20;;;10.50;;
62863;SDS011;48954;59.950;11.014;2024-01-06T00:50:42;9.70;;;6.40;;
62863;SDS011;48954;59.950;11.014;2024-01-06T00:53:08;22.70;;;10.20;;
62863;SDS011;48954;59.950;11.014;2024-01-06T00:55:35;16.20;;;9.00;;
62863;SDS011;48954;59.950;11.014;2024-01-06T00:58:00;25.20;;;7.30;;
62863;SDS011;48954;59.950;11.014;2024-01-06T01:00:26;22.70;;;9.90;;
62863;SDS011;48954;59.950;11.014;2024-01-06T01:02:52;24.20;;;12.00;;
62863;SDS011;48954;59.950;11.014;2024-01-06T01:05:19;48.10;;;10.70;;
62863;SDS011;48954;59.950;11.014;2024-01-06T01:07:45;22.60;;;11.10;;
62863;SDS011;48954;59.950;11.014;2024-01-06T01:10:11;9.70;;;6.10;;
62863;SDS011;48954;59.950;11.014;2024-01-06T01:12:37;20.20;;;7.60;;
62863;SDS011;48954;59.950;11.014;2024-01-06T01:15:04;7.20;;;3.90;;
62863;SDS011;48954;59.950;11.014;2024-01-06T01:17:32;3.70;;;2.50;;
62863;SDS011;48954;59.950;11.014;2024-01-06T01:19:58;14.20;;;2.80;;
62863;SDS011;48954;59.950;11.014;2024-01-06T01:22:24;19.70;;;8.70;;
62863;SDS011;48954;59.950;11.014;2024-01-06T01:24:50;17.50;;;10.60;;
62863;SDS011;48954;59.950;11.014;2024-01-06T01:27:16;23.20;;;12.10;;
62863;SDS011;48954;59.950;11.014;2024-01-06T01:29:42;48.50;;;16.00;;
62863;SDS011;48954;59.950;11.014;2024-01-06T01:32:08;37.70;;;10.70;;
62863;SDS011;48954;59.950;11.014;2024-01-06T01:34:35;40.90;;;15.40;;
62863;SDS011;48954;59.950;11.014;2024-01-06T01:37:01;44.60;;;13.80;;
62863;SDS011;48954;59.950;11.014;2024-01-06T01:39:26;44.20;;;11.90;;
62863;SDS011;48954;59.950;11.014;2024-01-06T01:41:52;31.60;;;9.20;;
62863;SDS011;48954;59.950;11.014;2024-01-06T01:44:18;29.40;;;11.10;;
62863;SDS011;48954;59.950;11.014;2024-01-06T01:46:44;17.00;;;11.00;;
62863;SDS011;48954;59.950;11.014;2024-01-06T01:49:12;51.10;;;18.60;;
62863;SDS011;48954;59.950;11.014;2024-01-06T01:51:38;28.30;;;10.50;;
62863;SDS011;48954;59.950;11.014;2024-01-06T01:54:05;23.80;;;7.70;;
62863;SDS011;48954;59.950;11.014;2024-01-06T01:56:32;20.60;;;7.90;;
62863;SDS011;48954;59.950;11.014;2024-01-06T01:59:00;34.50;;;6.90;;
62863;SDS011;48954;59.950;11.014;2024-01-06T02:01:28;13.60;;;9.30;;
62863;SDS011;48954;59.950;11.014;2024-01-06T02:03:55;10.30;;;6.30;;
62863;SDS011;48954;59.950;11.014;2024-01-06T02:06:21;9.90;;;5.20;;
62863;SDS011;48954;59.950;11.014;2024-01-06T02:08:47;12.10;;;7.70;;
62863;SDS011;48954;59.950;11.014;2024-01-06T02:11:13;19.70;;;10.90;;
62863;SDS011;48954;59.950;11.014;2024-01-06T02:13:39;20.80;;;8.70;;
62863;SDS011;48954;59.950;11.014;2024-01-06T02:16:06;18.90;;;7.80;;
62863;SDS011;48954;59.950;11.014;2024-01-06T02:18:32;8.50;;;3.00;;
62863;SDS011;48954;59.950;11.014;2024-01-06T02:21:02;19.60;;;5.90;;
62863;SDS011;48954;59.950;11.014;2024-01-06T02:23:29;14.10;;;7.50;;
62863;SDS011;48954;59.950;11.014;2024-01-06T02:25:55;29.60;;;7.40;;
62863;SDS011;48954;59.950;11.014;2024-01-06T02:28:22;18.20;;;5.10;;
62863;SDS011;48954;59.950;11.014;2024-01-06T02:30:48;26.80;;;10.00;;
62863;SDS011;48954;59.950;11.014;2024-01-06T02:33:21;8.90;;;4.50;;
62863;SDS011;48954;59.950;11.014;2024-01-06T02:36:03;18.40;;;7.80;;
62863;SDS011;48954;59.950;11.014;2024-01-06T02:38:29;12.00;;;5.50;;
62863;SDS011;48954;59.950;11.014;2024-01-06T02:40:55;15.80;;;6.60;;
62863;SDS011;48954;59.950;11.014;2024-01-06T02:43:21;20.60;;;7.80;;
62863;SDS011;48954;59.950;11.014;2024-01-06T02:45:47;17.50;;;8.30;;
62863;SDS011;48954;59.950;11.014;2024-01-06T02:48:13;29.20;;;8.30;;
62863;SDS011;48954;59.950;11.014;2024-01-06T02:50:39;5.50;;;2.90;;
62863;SDS011;48954;59.950;11.014;2024-01-06T02:53:05;19.60;;;7.50;;
62863;SDS011;48954;59.950;11.014;2024-01-06T02:55:32;16.90;;;7.50;;
62863;SDS011;48954;59.950;11.014;2024-01-06T02:57:58;13.20;;;7.70;;
62863;SDS011;48954;59.950;11.014;2024-01-06T03:00:24;11.00;;;3.80;;
62863;SDS011;48954;59.950;11.014;2024-01-06T03:02:50;13.80;;;5.10;;
62863;SDS011;48954;59.950;11.014;2024-01-06T03:05:15;6.70;;;3.10;;
62863;SDS011;48954;59.950;11.014;2024-01-06T03:07:41;2.90;;;0.80;;
62863;SDS011;48954;59.950;11.014;2024-01-06T03:10:07;2.20;;;0.80;;
62863;SDS011;48954;59.950;11.014;2024-01-06T03:12:33;1.30;;;1.10;;
62863;SDS011;48954;59.950;11.014;2024-01-06T03:14:59;3.00;;;1.60;;
62863;SDS011;48954;59.950;11.014;2024-01-06T03:17:25;0.70;;;0.60;;
62863;SDS011;48954;59.950;11.014;2024-01-06T03:19:51;2.40;;;1.30;;
62863;SDS011;48954;59.950;11.014;2024-01-06T03:22:17;7.10;;;3.30;;
62863;SDS011;48954;59.950;11.014;2024-01-06T03:24:43;3.20;;;2.00;;
62863;SDS011;48954;59.950;11.014;2024-01-06T03:27:09;14.90;;;5.60;;
62863;SDS011;48954;59.950;11.014;2024-01-06T03:29:35;4.20;;;1.40;;
62863;SDS011;48954;59.950;11.014;2024-01-06T03:32:00;10.40;;;4.10;;
62863;SDS011;48954;59.950;11.014;2024-01-06T03:34:26;21.10;;;6.10;;
62863;SDS011;48954;59.950;11.014;2024-01-06T03:36:52;4.10;;;1.80;;
62863;SDS011;48954;59.950;11.014;2024-01-06T03:39:18;0.50;;;0.40;;
62863;SDS011;48954;59.950;11.014;2024-01-06T03:41:44;1.80;;;1.00;;
62863;SDS011;48954;59.950;11.014;2024-01-06T03:44:10;3.40;;;2.60;;
62863;SDS011;48954;59.950;11.014;2024-01-06T03:46:36;1.70;;;0.50;;
62863;SDS011;48954;59.950;11.014;2024-01-06T03:49:03;2.60;;;1.60;;
62863;SDS011;48954;59.950;11.014;2024-01-06T03:51:29;2.50;;;1.10;;
62863;SDS011;48954;59.950;11.014;2024-01-06T03:53:55;0.60;;;0.50;;
62863;SDS011;48954;59.950;11.014;2024-01-06T03:56:21;1.10;;;0.50;;
62863;SDS011;48954;59.950;11.014;2024-01-06T03:58:47;0.70;;;0.50;;
62863;SDS011;48954;59.950;11.014;2024-01-06T04:01:13;1.10;;;0.80;;
62863;SDS011;48954;59.950;11.014;2024-01-06T04:03:38;0.60;;;0.30;;
62863;SDS011;48954;59.950;11.014;2024-01-06T04:06:05;0.80;;;0.70;;
62863;SDS011;48954;59.950;11.014;2024-01-06T04:08:31;1.20;;;0.70;;
62863;SDS011;48954;59.950;11.014;2024-01-06T04:10:56;0.40;;;0.20;;
62863;SDS011;48954;59.950;11.014;2024-01-06T04:13:22;0.60;;;0.50;;
62863;SDS011;48954;59.950;11.014;2024-01-06T04:15:48;1.50;;;1.30;;
62863;SDS011;48954;59.950;11.014;2024-01-06T04:18:17;1.50;;;0.90;;
62863;SDS011;48954;59.950;11.014;2024-01-06T04:20:43;0.00;;;0.00;;
62863;SDS011;48954;59.950;11.014;2024-01-06T04:23:10;0.20;;;0.20;;
62863;SDS011;48954;59.950;11.014;2024-01-06T04:25:36;0.70;;;0.40;;
62863;SDS011;48954;59.950;11.014;2024-01-06T04:28:01;0.90;;;0.80;;
62863;SDS011;48954;59.950;11.014;2024-01-06T04:30:31;0.40;;;0.20;;
62863;SDS011;48954;59.950;11.014;2024-01-06T04:32:57;0.50;;;0.30;;
62863;SDS011;48954;59.950;11.014;2024-01-06T04:35:24;0.10;;;0.10;;
62863;SDS011;48954;59.950;11.014;2024-01-06T04:37:50;2.30;;;1.70;;
62863;SDS011;48954;59.950;11.014;2024-01-06T04:40:16;0.00;;;0.00;;
62863;SDS011;48954;59.950;11.014;2024-01-06T04:42:42;2.60;;;1.10;;
62863;SDS011;48954;59.950;11.014;2024-01-06T04:45:08;0.30;;;0.30;;
62863;SDS011;48954;59.950;11.014;2024-01-06T04:47:34;0.10;;;0.10;;
62863;SDS011;48954;59.950;11.014;2024-01-06T04:50:00;0.50;;;0.30;;
62863;SDS011;48954;59.950;11.014;2024-01-06T04:52:26;0.10;;;0.00;;
62863;SDS011;48954;59.950;11.014;2024-01-06T04:54:52;0.10;;;0.10;;
62863;SDS011;48954;59.950;11.014;2024-01-06T04:57:18;0.10;;;0.00;;
62863;SDS011;48954;59.950;11.014;2024-01-06T04:59:44;0.50;;;0.30;;
62863;SDS011;48954;59.950;11.014;2024-01-06T05:02:10;0.10;;;0.10;;
62863;SDS011;48954;59.950;11.014;2024-01-06T05:04:37;3.90;;;1.50;;
62863;SDS011;48954;59.950;11.014;2024-01-06T05:07:03;3.00;;;0.90;;
62863;SDS011;48954;59.950;11.014;2024-01-06T05:09:29;3.10;;;2.00;;
62863;SDS011;48954;59.950;11.014;2024-01-06T05:11:55;2.30;;;1.90;;
62863;SDS011;48954;59.950;11.014;2024-01-06T05:14:21;5.70;;;1.90;;
62863;SDS011;48954;59.950;11.014;2024-01-06T05:16:46;1.10;;;1.00;;
62863;SDS011;48954;59.950;11.014;2024-01-06T05:19:12;4.00;;;1.20;;
62863;SDS011;48954;59.950;11.014;2024-01-06T05:21:38;3.60;;;1.80;;
62863;SDS011;48954;59.950;11.014;2024-01-06T05:24:04;2.30;;;1.50;;
62863;SDS011;48954;59.950;11.014;2024-01-06T05:26:31;6.70;;;1.10;;
62863;SDS011;48954;59.950;11.014;2024-01-06T05:28:57;0.00;;;0.00;;
62863;SDS011;48954;59.950;11.014;2024-01-06T05:31:23;0.60;;;0.40;;
62863;SDS011;48954;59.950;11.014;2024-01-06T05:33:52;0.30;;;0.20;;
62863;SDS011;48954;59.950;11.014;2024-01-06T05:36:18;4.00;;;1.10;;
62863;SDS011;48954;59.950;11.014;2024-01-06T05:38:44;4.80;;;1.80;;
62863;SDS011;48954;59.950;11.014;2024-01-06T05:41:11;1.80;;;0.90;;
62863;SDS011;48954;59.950;11.014;2024-01-06T05:43:36;2.50;;;1.60;;
62863;SDS011;48954;59.950;11.014;2024-01-06T05:46:03;0.10;;;0.10;;
62863;SDS011;48954;59.950;11.014;2024-01-06T05:48:28;0.40;;;0.30;;
62863;SDS011;48954;59.950;11.014;2024-01-06T05:50:54;0.80;;;0.60;;
62863;SDS011;48954;59.950;11.014;2024-01-06T05:53:20;0.00;;;0.00;;
62863;SDS011;48954;59.950;11.014;2024-01-06T05:55:47;3.60;;;1.10;;
62863;SDS011;48954;59.950;11.014;2024-01-06T05:58:12;1.00;;;0.70;;
62863;SDS011;48954;59.950;11.014;2024-01-06T06:00:38;0.40;;;0.40;;
62863;SDS011;48954;59.950;11.014;2024-01-06T06:03:04;0.60;;;0.40;;
62863;SDS011;48954;59.950;11.014;2024-01-06T06:05:30;1.40;;;0.30;;
62863;SDS011;48954;59.950;11.014;2024-01-06T06:07:56;1.20;;;0.60;;
62863;SDS011;48954;59.950;11.014;2024-01-06T06:10:22;0.80;;;0.60;;
62863;SDS011;48954;59.950;11.014;2024-01-06T06:12:48;2.40;;;1.00;;
62863;SDS011;48954;59.950;11.014;2024-01-06T06:15:14;2.20;;;1.10;;
62863;SDS011;48954;59.950;11.014;2024-01-06T06:17:40;2.70;;;1.30;;
62863;SDS011;48954;59.950;11.014;2024-01-06T06:20:06;0.60;;;0.50;;
62863;SDS011;48954;59.950;11.014;2024-01-06T06:22:33;1.40;;;0.20;;
62863;SDS011;48954;59.950;11.014;2024-01-06T06:24:59;1.50;;;1.00;;
62863;SDS011;48954;59.950;11.014;2024-01-06T06:27:25;0.20;;;0.10;;
62863;SDS011;48954;59.950;11.014;2024-01-06T06:29:52;0.80;;;0.70;;
62863;SDS011;48954;59.950;11.014;2024-01-06T06:32:19;0.20;;;0.20;;
62863;SDS011;48954;59.950;11.014;2024-01-06T06:34:45;6.60;;;2.60;;
62863;SDS011;48954;59.950;11.014;2024-01-06T06:37:11;0.50;;;0.30;;
62863;SDS011;48954;59.950;11.014;2024-01-06T06:39:37;9.00;;;2.90;;
62863;SDS011;48954;59.950;11.014;2024-01-06T06:42:03;9.60;;;3.50;;
62863;SDS011;48954;59.950;11.014;2024-01-06T06:44:29;9.00;;;3.50;;
62863;SDS011;48954;59.950;11.014;2024-01-06T06:46:56;9.10;;;4.10;;
62863;SDS011;48954;59.950;11.014;2024-01-06T06:49:22;7.00;;;2.80;;
62863;SDS011;48954;59.950;11.014;2024-01-06T06:51:48;8.40;;;4.50;;
62863;SDS011;48954;59.950;11.014;2024-01-06T06:54:14;20.00;;;6.50;;
62863;SDS011;48954;59.950;11.014;2024-01-06T06:56:44;0.00;;;0.00;;
62863;SDS011;48954;59.950;11.014;2024-01-06T06:59:11;0.70;;;0.60;;
62863;SDS011;48954;59.950;11.014;2024-01-06T07:01:37;8.90;;;4.90;;
62863;SDS011;48954;59.950;11.014;2024-01-06T07:04:03;8.50;;;4.50;;
62863;SDS011;48954;59.950;11.014;2024-01-06T07:06:29;11.70;;;5.30;;
62863;SDS011;48954;59.950;11.014;2024-01-06T07:08:56;8.20;;;4.90;;
62863;SDS011;48954;59.950;11.014;2024-01-06T07:11:23;3.30;;;0.30;;
62863;SDS011;48954;59.950;11.014;2024-01-06T07:13:49;7.50;;;3.80;;
62863;SDS011;48954;59.950;11.014;2024-01-06T07:16:16;20.10;;;6.60;;
62863;SDS011;48954;59.950;11.014;2024-01-06T07:18:42;16.00;;;7.80;;
62863;SDS011;48954;59.950;11.014;2024-01-06T07:21:07;20.40;;;6.70;;
62863;SDS011;48954;59.950;11.014;2024-01-06T07:23:33;11.90;;;5.60;;
62863;SDS011;48954;59.950;11.014;2024-01-06T07:26:00;8.20;;;4.80;;
62863;SDS011;48954;59.950;11.014;2024-01-06T07:28:26;1.40;;;1.00;;
62863;SDS011;48954;59.950;11.014;2024-01-06T07:30:53;2.80;;;1.50;;
62863;SDS011;48954;59.950;11.014;2024-01-06T07:33:18;3.10;;;1.60;;
62863;SDS011;48954;59.950;11.014;2024-01-06T07:35:45;3.90;;;1.60;;
62863;SDS011;48954;59.950;11.014;2024-01-06T07:38:11;22.40;;;5.90;;
62863;SDS011;48954;59.950;11.014;2024-01-06T07:40:36;12.60;;;6.40;;
62863;SDS011;48954;59.950;11.014;2024-01-06T07:43:02;16.00;;;6.00;;
62863;SDS011;48954;59.950;11.014;2024-01-06T07:45:28;13.80;;;6.90;;
62863;SDS011;48954;59.950;11.014;2024-01-06T07:47:54;16.60;;;7.80;;
62863;SDS011;48954;59.950;11.014;2024-01-06T07:50:20;5.50;;;1.80;;
62863;SDS011;48954;59.950;11.014;2024-01-06T07:52:46;14.50;;;5.40;;
62863;SDS011;48954;59.950;11.014;2024-01-06T07:55:12;1.40;;;0.60;;
62863;SDS011;48954;59.950;11.014;2024-01-06T07:57:38;1.70;;;1.10;;
62863;SDS011;48954;59.950;11.014;2024-01-06T08:00:05;4.80;;;1.70;;
62863;SDS011;48954;59.950;11.014;2024-01-06T08:02:31;3.00;;;2.00;;
62863;SDS011;48954;59.950;11.014;2024-01-06T08:04:57;7.10;;;2.50;;
62863;SDS011;48954;59.950;11.014;2024-01-06T08:07:23;10.90;;;1.60;;
62863;SDS011;48954;59.950;11.014;2024-01-06T08:09:49;4.70;;;1.50;;
62863;SDS011;48954;59.950;11.014;2024-01-06T08:12:15;0.30;;;0.10;;
62863;SDS011;48954;59.950;11.014;2024-01-06T08:14:41;3.50;;;1.60;;
62863;SDS011;48954;59.950;11.014;2024-01-06T08:17:09;3.60;;;0.80;;
62863;SDS011;48954;59.950;11.014;2024-01-06T08:19:35;2.10;;;1.10;;
62863;SDS011;48954;59.950;11.014;2024-01-06T08:22:01;2.20;;;1.40;;
62863;SDS011;48954;59.950;11.014;2024-01-06T08:24:27;1.60;;;1.20;;
62863;SDS011;48954;59.950;11.014;2024-01-06T08:26:53;8.10;;;2.40;;
62863;SDS011;48954;59.950;11.014;2024-01-06T08:29:19;2.60;;;0.90;;
62863;SDS011;48954;59.950;11.014;2024-01-06T08:31:45;0.80;;;0.70;;
62863;SDS011;48954;59.950;11.014;2024-01-06T08:34:11;15.00;;;6.50;;
62863;SDS011;48954;59.950;11.014;2024-01-06T08:36:37;12.10;;;8.00;;
62863;SDS011;48954;59.950;11.014;2024-01-06T08:39:03;6.90;;;2.90;;
62863;SDS011;48954;59.950;11.014;2024-01-06T08:41:29;1.10;;;1.00;;
62863;SDS011;48954;59.950;11.014;2024-01-06T08:43:55;1.40;;;1.00;;
62863;SDS011;48954;59.950;11.014;2024-01-06T08:46:21;2.20;;;1.50;;
62863;SDS011;48954;59.950;11.014;2024-01-06T08:48:49;5.60;;;2.40;;
62863;SDS011;48954;59.950;11.014;2024-01-06T08:51:31;9.10;;;3.80;;
62863;SDS011;48954;59.950;11.014;2024-01-06T08:53:57;1.70;;;0.70;;
62863;SDS011;48954;59.950;11.014;2024-01-06T08:56:23;0.90;;;0.60;;
62863;SDS011;48954;59.950;11.014;2024-01-06T08:58:49;3.00;;;1.00;;
62863;SDS011;48954;59.950;11.014;2024-01-06T09:01:15;4.20;;;1.20;;
62863;SDS011;48954;59.950;11.014;2024-01-06T09:03:41;3.30;;;1.30;;
62863;SDS011;48954;59.950;11.014;2024-01-06T09:06:07;7.80;;;2.40;;
62863;SDS011;48954;59.950;11.014;2024-01-06T09:08:33;0.90;;;0.60;;
62863;SDS011;48954;59.950;11.014;2024-01-06T09:10:59;1.60;;;1.20;;
62863;SDS011;48954;59.950;11.014;2024-01-06T09:13:26;6.20;;;3.20;;
62863;SDS011;48954;59.950;11.014;2024-01-06T09:15:52;4.10;;;2.20;;
62863;SDS011;48954;59.950;11.014;2024-01-06T09:18:18;2.60;;;2.30;;
62863;SDS011;48954;59.950;11.014;2024-01-06T09:20:46;2.80;;;1.60;;
62863;SDS011;48954;59.950;11.014;2024-01-06T09:23:12;4.50;;;2.80;;
62863;SDS011;48954;59.950;11.014;2024-01-06T09:25:38;5.10;;;2.40;;
62863;SDS011;48954;59.950;11.014;2024-01-06T09:28:05;1.20;;;1.10;;
62863;SDS011;48954;59.950;11.014;2024-01-06T09:30:31;3.20;;;1.00;;
62863;SDS011;48954;59.950;11.014;2024-01-06T09:33:05;3.90;;;2.80;;
62863;SDS011;48954;59.950;11.014;2024-01-06T09:35:31;8.80;;;4.10;;
62863;SDS011;48954;59.950;11.014;2024-01-06T09:37:58;6.00;;;3.50;;
62863;SDS011;48954;59.950;11.014;2024-01-06T09:40:24;5.80;;;1.60;;
62863;SDS011;48954;59.950;11.014;2024-01-06T09:42:50;4.00;;;1.80;;
62863;SDS011;48954;59.950;11.014;2024-01-06T09:45:19;2.80;;;1.40;;
62863;SDS011;48954;59.950;11.014;2024-01-06T09:47:48;1.80;;;1.10;;
62863;SDS011;48954;59.950;11.014;2024-01-06T09:50:17;3.30;;;1.90;;
62863;SDS011;48954;59.950;11.014;2024-01-06T09:52:46;1.50;;;0.80;;
62863;SDS011;48954;59.950;11.014;2024-01-06T09:55:13;1.10;;;1.00;;
62863;SDS011;48954;59.950;11.014;2024-01-06T09:57:39;2.70;;;1.50;;
62863;SDS011;48954;59.950;11.014;2024-01-06T10:00:06;6.70;;;1.00;;
62863;SDS011;48954;59.950;11.014;2024-01-06T10:02:32;12.70;;;2.30;;
62863;SDS011;48954;59.950;11.014;2024-01-06T10:04:58;3.30;;;1.90;;
62863;SDS011;48954;59.950;11.014;2024-01-06T10:07:27;4.10;;;2.30;;
62863;SDS011;48954;59.950;11.014;2024-01-06T10:09:56;1.60;;;1.10;;
62863;SDS011;48954;59.950;11.014;2024-01-06T10:12:26;3.00;;;1.70;;
62863;SDS011;48954;59.950;11.014;2024-01-06T10:14:52;1.00;;;0.70;;
62863;SDS011;48954;59.950;11.014;2024-01-06T10:17:18;3.20;;;1.30;;
62863;SDS011;48954;59.950;11.014;2024-01-06T10:19:45;1.40;;;0.80;;
62863;SDS011;48954;59.950;11.014;2024-01-06T10:22:11;4.00;;;1.90;;
62863;SDS011;48954;59.950;11.014;2024-01-06T10:24:37;2.90;;;1.20;;
62863;SDS011;48954;59.950;11.014;2024-01-06T10:27:03;4.20;;;1.50;;
62863;SDS011;48954;59.950;11.014;2024-01-06T10:29:29;2.50;;;1.40;;
62863;SDS011;48954;59.950;11.014;2024-01-06T10:31:55;2.40;;;2.20;;
62863;SDS011;48954;59.950;11.014;2024-01-06T10:34:23;10.60;;;2.80;;
62863;SDS011;48954;59.950;11.014;2024-01-06T10:36:49;7.90;;;3.60;;
62863;SDS011;48954;59.950;11.014;2024-01-06T10:39:16;9.10;;;3.80;;
62863;SDS011;48954;59.950;11.014;2024-01-06T10:41:42;14.90;;;5.60;;
62863;SDS011;48954;59.950;11.014;2024-01-06T10:44:10;3.50;;;3.10;;
62863;SDS011;48954;59.950;11.014;2024-01-06T10:46:36;5.40;;;2.00;;
62863;SDS011;48954;59.950;11.014;2024-01-06T10:49:05;9.10;;;4.20;;
62863;SDS011;48954;59.950;11.014;2024-01-06T10:51:31;11.80;;;5.40;;
62863;SDS011;48954;59.950;11.014;2024-01-06T10:54:00;8.80;;;4.20;;
62863;SDS011;48954;59.950;11.014;2024-01-06T10:56:27;23.70;;;8.20;;
62863;SDS011;48954;59.950;11.014;2024-01-06T10:58:56;10.40;;;4.60;;
62863;SDS011;48954;59.950;11.014;2024-01-06T11:01:23;7.00;;;3.00;;
62863;SDS011;48954;59.950;11.014;2024-01-06T11:04:09;5.50;;;3.00;;
62863;SDS011;48954;59.950;11.014;2024-01-06T11:06:35;6.00;;;3.10;;
62863;SDS011;48954;59.950;11.014;2024-01-06T11:09:13;16.00;;;5.80;;
62863;SDS011;48954;59.950;11.014;2024-01-06T11:11:45;5.40;;;2.70;;
62863;SDS011;48954;59.950;11.014;2024-01-06T11:16:50;6.00;;;2.10;;
62863;SDS011;48954;59.950;11.014;2024-01-06T11:22:20;3.20;;;2.40;;
62863;SDS011;48954;59.950;11.014;2024-01-06T11:27:26;7.50;;;2.80;;
62863;SDS011;48954;59.950;11.014;2024-01-06T11:29:54;4.90;;;1.90;;
62863;SDS011;48954;59.950;11.014;2024-01-06T11:34:53;6.50;;;1.60;;
62863;SDS011;48954;59.950;11.014;2024-01-06T11:37:23;1.60;;;0.90;;
62863;SDS011;48954;59.950;11.014;2024-01-06T11:39:51;3.60;;;1.60;;
62863;SDS011;48954;59.950;11.014;2024-01-06T11:42:17;4.80;;;2.00;;
62863;SDS011;48954;59.950;11.014;2024-01-06T11:44:44;4.20;;;1.70;;
62863;SDS011;48954;59.950;11.014;2024-01-06T11:47:11;6.80;;;1.70;;
62863;SDS011;48954;59.950;11.014;2024-01-06T11:49:39;3.00;;;1.20;;
62863;SDS011;48954;59.950;11.014;2024-01-06T11:52:09;5.60;;;1.30;;
62863;SDS011;48954;59.950;11.014;2024-01-06T11:54:36;6.40;;;1.90;;
62863;SDS011;48954;59.950;11.014;2024-01-06T11:57:02;1.90;;;1.00;;
62863;SDS011;48954;59.950;11.014;2024-01-06T11:59:28;10.60;;;2.50;;
62863;SDS011;48954;59.950;11.014;2024-01-06T12:01:57;6.10;;;3.80;;
62863;SDS011;48954;59.950;11.014;2024-01-06T12:04:25;9.40;;;2.20;;
62863;SDS011;48954;59.950;11.014;2024-01-06T12:06:51;2.60;;;1.30;;
62863;SDS011;48954;59.950;11.014;2024-01-06T12:09:17;9.90;;;3.20;;
62863;SDS011;48954;59.950;11.014;2024-01-06T12:11:47;7.20;;;2.80;;
62863;SDS011;48954;59.950;11.014;2024-01-06T12:14:13;1.80;;;0.90;;
62863;SDS011;48954;59.950;11.014;2024-01-06T12:16:40;8.50;;;1.40;;
62863;SDS011;48954;59.950;11.014;2024-01-06T12:19:06;3.60;;;1.40;;
62863;SDS011;48954;59.950;11.014;2024-01-06T12:21:32;9.00;;;4.20;;
62863;SDS011;48954;59.950;11.014;2024-01-06T12:24:17;11.20;;;6.10;;
62863;SDS011;48954;59.950;11.014;2024-01-06T12:26:44;17.70;;;6.90;;
62863;SDS011;48954;59.950;11.014;2024-01-06T12:29:10;19.80;;;6.80;;
62863;SDS011;48954;59.950;11.014;2024-01-06T12:31:40;14.80;;;6.30;;
62863;SDS011;48954;59.950;11.014;2024-01-06T12:34:07;5.50;;;1.90;;
62863;SDS011;48954;59.950;11.014;2024-01-06T12:36:35;14.40;;;4.10;;
62863;SDS011;48954;59.950;11.014;2024-01-06T12:39:05;26.40;;;10.00;;
62863;SDS011;48954;59.950;11.014;2024-01-06T12:41:40;29.40;;;12.70;;
62863;SDS011;48954;59.950;11.014;2024-01-06T12:44:06;30.90;;;11.10;;
62863;SDS011;48954;59.950;11.014;2024-01-06T12:46:32;18.90;;;7.00;;
62863;SDS011;48954;59.950;11.014;2024-01-06T12:48:58;8.80;;;3.10;;
62863;SDS011;48954;59.950;11.014;2024-01-06T12:51:25;18.90;;;6.80;;
62863;SDS011;48954;59.950;11.014;2024-01-06T12:53:51;7.40;;;3.10;;
62863;SDS011;48954;59.950;11.014;2024-01-06T12:56:17;18.10;;;7.80;;
62863;SDS011;48954;59.950;11.014;2024-01-06T12:58:46;23.30;;;8.70;;
62863;SDS011;48954;59.950;11.014;2024-01-06T13:01:12;26.20;;;9.70;;
62863;SDS011;48954;59.950;11.014;2024-01-06T13:03:39;18.10;;;7.70;;
62863;SDS011;48954;59.950;11.014;2024-01-06T13:06:05;26.00;;;11.00;;
62863;SDS011;48954;59.950;11.014;2024-01-06T13:08:32;29.20;;;12.70;;
62863;SDS011;48954;59.950;11.014;2024-01-06T13:10:59;28.80;;;9.40;;
62863;SDS011;48954;59.950;11.014;2024-01-06T13:13:25;5.90;;;3.70;;
62863;SDS011;48954;59.950;11.014;2024-01-06T13:15:52;7.70;;;2.60;;
62863;SDS011;48954;59.950;11.014;2024-01-06T13:18:18;17.40;;;6.80;;
62863;SDS011;48954;59.950;11.014;2024-01-06T13:20:44;18.00;;;6.90;;
62863;SDS011;48954;59.950;11.014;2024-01-06T13:23:12;18.20;;;7.80;;
62863;SDS011;48954;59.950;11.014;2024-01-06T13:25:39;30.80;;;9.20;;
62863;SDS011;48954;59.950;11.014;2024-01-06T13:28:05;29.50;;;11.30;;
62863;SDS011;48954;59.950;11.014;2024-01-06T13:30:34;31.50;;;10.70;;
62863;SDS011;48954;59.950;11.014;2024-01-06T13:33:03;41.90;;;13.10;;
62863;SDS011;48954;59.950;11.014;2024-01-06T13:35:42;43.70;;;14.40;;
62863;SDS011;48954;59.950;11.014;2024-01-06T13:38:08;64.30;;;20.40;;
62863;SDS011;48954;59.950;11.014;2024-01-06T13:41:04;58.70;;;21.60;;
62863;SDS011;48954;59.950;11.014;2024-01-06T13:43:45;62.40;;;19.40;;
62863;SDS011;48954;59.950;11.014;2024-01-06T13:46:12;43.20;;;16.60;;
62863;SDS011;48954;59.950;11.014;2024-01-06T13:48:39;38.90;;;14.70;;
62863;SDS011;48954;59.950;11.014;2024-01-06T13:51:06;25.40;;;9.40;;
62863;SDS011;48954;59.950;11.014;2024-01-06T13:53:37;10.80;;;3.40;;
62863;SDS011;48954;59.950;11.014;2024-01-06T13:56:03;36.50;;;11.20;;
62863;SDS011;48954;59.950;11.014;2024-01-06T13:58:30;17.80;;;6.40;;
62863;SDS011;48954;59.950;11.014;2024-01-06T14:00:57;34.00;;;13.70;;
62863;SDS011;48954;59.950;11.014;2024-01-06T14:03:23;32.40;;;11.50;;
62863;SDS011;48954;59.950;11.014;2024-01-06T14:05:51;24.70;;;9.40;;
62863;SDS011;48954;59.950;11.014;2024-01-06T14:08:18;23.40;;;8.50;;
62863;SDS011;48954;59.950;11.014;2024-01-06T14:10:47;20.90;;;6.90;;
62863;SDS011;48954;59.950;11.014;2024-01-06T14:13:14;28.30;;;9.20;;
62863;SDS011;48954;59.950;11.014;2024-01-06T14:15:40;8.30;;;3.40;;
62863;SDS011;48954;59.950;11.014;2024-01-06T14:18:15;7.40;;;3.50;;
62863;SDS011;48954;59.950;11.014;2024-01-06T14:20:42;7.70;;;3.50;;
62863;SDS011;48954;59.950;11.014;2024-01-06T14:23:12;8.00;;;3.30;;
62863;SDS011;48954;59.950;11.014;2024-01-06T14:25:39;9.50;;;2.70;;
62863;SDS011;48954;59.950;11.014;2024-01-06T14:28:05;11.50;;;4.70;;
62863;SDS011;48954;59.950;11.014;2024-01-06T14:30:31;11.90;;;5.10;;
62863;SDS011;48954;59.950;11.014;2024-01-06T14:32:58;15.60;;;7.40;;
62863;SDS011;48954;59.950;11.014;2024-01-06T14:35:32;5.70;;;2.10;;
62863;SDS011;48954;59.950;11.014;2024-01-06T14:38:00;5.50;;;2.70;;